sensor_id;sensor_type;location;lat;lon;timestamp;pressure;altitude;pressure_sealevel;temperature;humidity
75551;BME280;65071;53.082;18.218;2023-07-24T00:00:30;100332.73;;;18.15;55.46
75551;BME280;65071;53.082;18.218;2023-07-24T00:03:16;100332.36;;;18.07;56.03
75551;BME280;65071;53.082;18.218;2023-07-24T00:05:42;100334.95;;;18.02;55.89
75551;BME280;65071;53.082;18.218;2023-07-24T00:08:09;100334.19;;;17.97;55.92
75551;BME280;65071;53.082;18.218;2023-07-24T00:10:35;100334.20;;;17.92;56.44
75551;BME280;65071;53.082;18.218;2023-07-24T00:13:02;100335.80;;;17.85;56.27
75551;BME280;65071;53.082;18.218;2023-07-24T00:15:29;100335.33;;;17.80;57.09
75551;BME280;65071;53.082;18.218;2023-07-24T00:17:55;100336.34;;;17.74;56.66
75551;BME280;65071;53.082;18.218;2023-07-24T00:20:22;100340.52;;;17.68;56.70
75551;BME280;65071;53.082;18.218;2023-07-24T00:22:50;100341.54;;;17.64;57.33
75551;BME280;65071;53.082;18.218;2023-07-24T00:25:17;100340.77;;;17.59;57.15
75551;BME280;65071;53.082;18.218;2023-07-24T00:27:44;100343.45;;;17.54;57.16
75551;BME280;65071;53.082;18.218;2023-07-24T00:30:12;100346.99;;;17.49;57.71
75551;BME280;65071;53.082;18.218;2023-07-24T00:32:39;100346.89;;;17.43;58.07
75551;BME280;65071;53.082;18.218;2023-07-24T00:35:06;100343.30;;;17.37;57.83
75551;BME280;65071;53.082;18.218;2023-07-24T00:37:33;100344.35;;;17.34;57.80
75551;BME280;65071;53.082;18.218;2023-07-24T00:39:59;100341.40;;;17.31;57.64
75551;BME280;65071;53.082;18.218;2023-07-24T00:42:26;100337.79;;;17.28;57.96
75551;BME280;65071;53.082;18.218;2023-07-24T00:44:52;100339.34;;;17.25;57.67
75551;BME280;65071;53.082;18.218;2023-07-24T00:47:19;100341.34;;;17.22;57.78
75551;BME280;65071;53.082;18.218;2023-07-24T00:49:46;100339.95;;;17.19;57.63
75551;BME280;65071;53.082;18.218;2023-07-24T00:52:14;100343.92;;;17.18;58.08
75551;BME280;65071;53.082;18.218;2023-07-24T00:54:43;100344.93;;;17.13;58.09
75551;BME280;65071;53.082;18.218;2023-07-24T00:57:10;100346.21;;;17.10;58.08
75551;BME280;65071;53.082;18.218;2023-07-24T00:59:36;100348.68;;;17.07;58.12
75551;BME280;65071;53.082;18.218;2023-07-24T01:02:03;100347.66;;;17.04;57.97
75551;BME280;65071;53.082;18.218;2023-07-24T01:04:30;100347.14;;;17.01;58.11
75551;BME280;65071;53.082;18.218;2023-07-24T01:06:58;100349.86;;;16.98;58.41
75551;BME280;65071;53.082;18.218;2023-07-24T01:09:24;100348.24;;;16.94;58.60
75551;BME280;65071;53.082;18.218;2023-07-24T01:12:02;100346.52;;;16.91;58.48
75551;BME280;65071;53.082;18.218;2023-07-24T01:14:44;100347.61;;;16.88;58.72
75551;BME280;65071;53.082;18.218;2023-07-24T01:17:15;100351.77;;;16.86;58.83
75551;BME280;65071;53.082;18.218;2023-07-24T01:19:51;100352.19;;;16.83;58.85
75551;BME280;65071;53.082;18.218;2023-07-24T01:22:38;100347.85;;;16.80;59.15
75551;BME280;65071;53.082;18.218;2023-07-24T01:25:23;100346.54;;;16.76;59.12
75551;BME280;65071;53.082;18.218;2023-07-24T01:27:53;100345.27;;;16.72;59.21
75551;BME280;65071;53.082;18.218;2023-07-24T01:30:20;100344.84;;;16.70;58.88
75551;BME280;65071;53.082;18.218;2023-07-24T01:32:47;100339.25;;;16.68;58.88
75551;BME280;65071;53.082;18.218;2023-07-24T01:35:16;100338.19;;;16.65;58.77
75551;BME280;65071;53.082;18.218;2023-07-24T01:37:43;100339.11;;;16.64;58.90
75551;BME280;65071;53.082;18.218;2023-07-24T01:40:12;100334.86;;;16.62;58.97
75551;BME280;65071;53.082;18.218;2023-07-24T01:42:40;100335.20;;;16.59;58.85
75551;BME280;65071;53.082;18.218;2023-07-24T01:45:07;100333.63;;;16.57;58.98
75551;BME280;65071;53.082;18.218;2023-07-24T01:47:34;100334.61;;;16.55;59.07
75551;BME280;65071;53.082;18.218;2023-07-24T01:50:01;100332.02;;;16.54;59.06
75551;BME280;65071;53.082;18.218;2023-07-24T01:52:27;100328.48;;;16.52;59.18
75551;BME280;65071;53.082;18.218;2023-07-24T01:54:54;100326.79;;;16.50;59.28
75551;BME280;65071;53.082;18.218;2023-07-24T01:57:20;100324.88;;;16.47;59.38
75551;BME280;65071;53.082;18.218;2023-07-24T01:59:47;100320.30;;;16.45;59.42
75551;BME280;65071;53.082;18.218;2023-07-24T02:02:15;100312.91;;;16.43;59.50
75551;BME280;65071;53.082;18.218;2023-07-24T02:04:41;100314.70;;;16.41;59.61
75551;BME280;65071;53.082;18.218;2023-07-24T02:07:08;100313.85;;;16.39;59.54
75551;BME280;65071;53.082;18.218;2023-07-24T02:09:34;100312.38;;;16.38;59.88
75551;BME280;65071;53.082;18.218;2023-07-24T02:12:01;100315.95;;;16.35;60.29
75551;BME280;65071;53.082;18.218;2023-07-24T02:14:28;100319.49;;;16.30;60.89
75551;BME280;65071;53.082;18.218;2023-07-24T02:16:55;100328.84;;;16.26;60.37
75551;BME280;65071;53.082;18.218;2023-07-24T02:19:21;100331.55;;;16.23;60.41
75551;BME280;65071;53.082;18.218;2023-07-24T02:21:48;100333.52;;;16.22;60.46
75551;BME280;65071;53.082;18.218;2023-07-24T02:24:14;100329.33;;;16.20;60.48
75551;BME280;65071;53.082;18.218;2023-07-24T02:26:41;100329.14;;;16.18;60.51
75551;BME280;65071;53.082;18.218;2023-07-24T02:29:07;100328.38;;;16.17;60.80
75551;BME280;65071;53.082;18.218;2023-07-24T02:31:34;100326.73;;;16.16;60.58
75551;BME280;65071;53.082;18.218;2023-07-24T02:34:00;100329.82;;;16.15;60.44
75551;BME280;65071;53.082;18.218;2023-07-24T02:36:27;100331.62;;;16.13;60.70
75551;BME280;65071;53.082;18.218;2023-07-24T02:38:53;100329.94;;;16.12;60.90
75551;BME280;65071;53.082;18.218;2023-07-24T02:41:20;100329.04;;;16.11;60.66
75551;BME280;65071;53.082;18.218;2023-07-24T02:43:46;100325.73;;;16.10;60.66
75551;BME280;65071;53.082;18.218;2023-07-24T02:46:13;100322.14;;;16.10;60.69
75551;BME280;65071;53.082;18.218;2023-07-24T02:48:39;100320.30;;;16.10;61.13
75551;BME280;65071;53.082;18.218;2023-07-24T02:51:06;100323.17;;;16.10;61.18
75551;BME280;65071;53.082;18.218;2023-07-24T02:53:32;100323.30;;;16.09;61.40
75551;BME280;65071;53.082;18.218;2023-07-24T02:56:01;100321.46;;;16.09;61.03
75551;BME280;65071;53.082;18.218;2023-07-24T02:58:28;100321.84;;;16.11;61.02
75551;BME280;65071;53.082;18.218;2023-07-24T03:01:03;100326.48;;;16.14;61.13
75551;BME280;65071;53.082;18.218;2023-07-24T03:03:29;100322.26;;;16.17;61.26
75551;BME280;65071;53.082;18.218;2023-07-24T03:05:56;100320.23;;;16.19;61.37
75551;BME280;65071;53.082;18.218;2023-07-24T03:08:23;100315.77;;;16.23;61.08
75551;BME280;65071;53.082;18.218;2023-07-24T03:10:49;100319.10;;;16.28;61.15
75551;BME280;65071;53.082;18.218;2023-07-24T03:13:16;100309.55;;;16.33;61.07
75551;BME280;65071;53.082;18.218;2023-07-24T03:15:42;100303.34;;;16.39;61.00
75551;BME280;65071;53.082;18.218;2023-07-24T03:18:09;100305.92;;;16.44;61.04
75551;BME280;65071;53.082;18.218;2023-07-24T03:20:35;100313.31;;;16.51;60.96
75551;BME280;65071;53.082;18.218;2023-07-24T03:23:02;100311.13;;;16.58;60.82
75551;BME280;65071;53.082;18.218;2023-07-24T03:25:28;100307.67;;;16.65;60.80
75551;BME280;65071;53.082;18.218;2023-07-24T03:27:55;100313.62;;;16.74;60.85
75551;BME280;65071;53.082;18.218;2023-07-24T03:30:21;100318.95;;;16.83;60.83
75551;BME280;65071;53.082;18.218;2023-07-24T03:32:48;100320.27;;;16.90;60.82
75551;BME280;65071;53.082;18.218;2023-07-24T03:35:14;100319.13;;;17.00;60.73
75551;BME280;65071;53.082;18.218;2023-07-24T03:37:41;100323.14;;;17.12;60.71
75551;BME280;65071;53.082;18.218;2023-07-24T03:40:07;100324.13;;;17.19;60.42
75551;BME280;65071;53.082;18.218;2023-07-24T03:42:34;100318.24;;;17.24;60.37
75551;BME280;65071;53.082;18.218;2023-07-24T03:45:01;100320.13;;;17.27;60.30
75551;BME280;65071;53.082;18.218;2023-07-24T03:47:27;100314.60;;;17.29;60.25
75551;BME280;65071;53.082;18.218;2023-07-24T03:49:54;100317.25;;;17.34;60.28
75551;BME280;65071;53.082;18.218;2023-07-24T03:52:21;100312.17;;;17.38;60.15
75551;BME280;65071;53.082;18.218;2023-07-24T03:54:47;100311.34;;;17.41;60.12
75551;BME280;65071;53.082;18.218;2023-07-24T03:57:14;100310.58;;;17.45;60.13
75551;BME280;65071;53.082;18.218;2023-07-24T03:59:41;100315.46;;;17.50;60.10
75551;BME280;65071;53.082;18.218;2023-07-24T04:02:07;100314.19;;;17.54;60.14
75551;BME280;65071;53.082;18.218;2023-07-24T04:04:33;100313.91;;;17.57;60.01
75551;BME280;65071;53.082;18.218;2023-07-24T04:07:00;100320.25;;;17.61;60.04
75551;BME280;65071;53.082;18.218;2023-07-24T04:09:27;100318.90;;;17.66;60.26
75551;BME280;65071;53.082;18.218;2023-07-24T04:11:53;100316.61;;;17.69;60.44
75551;BME280;65071;53.082;18.218;2023-07-24T04:14:20;100315.13;;;17.73;60.27
75551;BME280;65071;53.082;18.218;2023-07-24T04:16:46;100317.81;;;17.77;60.43
75551;BME280;65071;53.082;18.218;2023-07-24T04:19:13;100313.08;;;17.80;60.43
75551;BME280;65071;53.082;18.218;2023-07-24T04:21:39;100309.13;;;17.82;60.42
75551;BME280;65071;53.082;18.218;2023-07-24T04:24:06;100310.72;;;17.86;60.34
75551;BME280;65071;53.082;18.218;2023-07-24T04:26:32;100313.27;;;17.92;60.64
75551;BME280;65071;53.082;18.218;2023-07-24T04:28:59;100314.52;;;17.97;60.73
75551;BME280;65071;53.082;18.218;2023-07-24T04:31:25;100317.98;;;18.04;60.64
75551;BME280;65071;53.082;18.218;2023-07-24T04:33:52;100321.91;;;18.11;60.71
75551;BME280;65071;53.082;18.218;2023-07-24T04:36:18;100317.83;;;18.18;60.71
75551;BME280;65071;53.082;18.218;2023-07-24T04:38:45;100320.70;;;18.27;60.58
75551;BME280;65071;53.082;18.218;2023-07-24T04:41:13;100318.79;;;18.38;60.36
75551;BME280;65071;53.082;18.218;2023-07-24T04:43:40;100320.98;;;18.48;60.48
75551;BME280;65071;53.082;18.218;2023-07-24T04:46:06;100317.25;;;18.59;60.27
75551;BME280;65071;53.082;18.218;2023-07-24T04:48:33;100316.36;;;18.70;60.24
75551;BME280;65071;53.082;18.218;2023-07-24T04:50:59;100317.73;;;18.79;60.02
75551;BME280;65071;53.082;18.218;2023-07-24T04:53:26;100321.30;;;18.86;59.71
75551;BME280;65071;53.082;18.218;2023-07-24T04:55:52;100323.48;;;18.92;59.82
75551;BME280;65071;53.082;18.218;2023-07-24T04:58:19;100321.08;;;18.99;59.66
75551;BME280;65071;53.082;18.218;2023-07-24T05:00:45;100316.83;;;19.05;59.74
75551;BME280;65071;53.082;18.218;2023-07-24T05:03:11;100315.95;;;19.13;59.57
75551;BME280;65071;53.082;18.218;2023-07-24T05:05:38;100318.88;;;19.18;59.54
75551;BME280;65071;53.082;18.218;2023-07-24T05:08:05;100321.82;;;19.23;59.70
75551;BME280;65071;53.082;18.218;2023-07-24T05:10:35;100320.02;;;19.30;59.71
75551;BME280;65071;53.082;18.218;2023-07-24T05:13:02;100323.63;;;19.36;60.21
75551;BME280;65071;53.082;18.218;2023-07-24T05:15:29;100327.33;;;19.41;60.36
75551;BME280;65071;53.082;18.218;2023-07-24T05:17:55;100326.48;;;19.45;60.34
75551;BME280;65071;53.082;18.218;2023-07-24T05:20:22;100324.48;;;19.46;60.24
75551;BME280;65071;53.082;18.218;2023-07-24T05:22:48;100325.75;;;19.47;59.98
75551;BME280;65071;53.082;18.218;2023-07-24T05:25:15;100326.79;;;19.47;60.04
75551;BME280;65071;53.082;18.218;2023-07-24T05:27:42;100324.38;;;19.49;60.23
75551;BME280;65071;53.082;18.218;2023-07-24T05:30:08;100324.83;;;19.51;60.22
75551;BME280;65071;53.082;18.218;2023-07-24T05:32:35;100318.37;;;19.52;60.34
75551;BME280;65071;53.082;18.218;2023-07-24T05:35:01;100321.19;;;19.55;60.27
75551;BME280;65071;53.082;18.218;2023-07-24T05:37:28;100327.66;;;19.58;61.09
75551;BME280;65071;53.082;18.218;2023-07-24T05:39:54;100333.01;;;19.62;62.38
75551;BME280;65071;53.082;18.218;2023-07-24T05:42:21;100325.27;;;19.65;63.73
75551;BME280;65071;53.082;18.218;2023-07-24T05:44:47;100330.21;;;19.64;65.08
75551;BME280;65071;53.082;18.218;2023-07-24T05:47:14;100327.30;;;19.59;64.61
75551;BME280;65071;53.082;18.218;2023-07-24T05:49:40;100321.02;;;19.53;66.26
75551;BME280;65071;53.082;18.218;2023-07-24T05:52:07;100320.20;;;19.46;67.63
75551;BME280;65071;53.082;18.218;2023-07-24T05:54:33;100318.20;;;19.40;67.49
75551;BME280;65071;53.082;18.218;2023-07-24T05:57:00;100316.38;;;19.35;67.47
75551;BME280;65071;53.082;18.218;2023-07-24T05:59:27;100321.71;;;19.28;69.36
75551;BME280;65071;53.082;18.218;2023-07-24T06:01:53;100330.66;;;19.17;69.71
75551;BME280;65071;53.082;18.218;2023-07-24T06:04:19;100342.30;;;19.08;68.50
75551;BME280;65071;53.082;18.218;2023-07-24T06:06:46;100345.04;;;19.02;69.25
75551;BME280;65071;53.082;18.218;2023-07-24T06:09:12;100350.77;;;18.97;68.23
75551;BME280;65071;53.082;18.218;2023-07-24T06:11:39;100351.88;;;18.95;68.59
75551;BME280;65071;53.082;18.218;2023-07-24T06:14:06;100348.95;;;18.94;69.27
75551;BME280;65071;53.082;18.218;2023-07-24T06:16:32;100348.28;;;18.93;69.33
75551;BME280;65071;53.082;18.218;2023-07-24T06:18:58;100349.61;;;18.94;68.89
75551;BME280;65071;53.082;18.218;2023-07-24T06:21:25;100342.59;;;18.94;69.24
75551;BME280;65071;53.082;18.218;2023-07-24T06:23:51;100347.09;;;18.95;69.86
75551;BME280;65071;53.082;18.218;2023-07-24T06:26:18;100348.88;;;18.98;69.75
75551;BME280;65071;53.082;18.218;2023-07-24T06:28:44;100350.69;;;18.99;69.52
75551;BME280;65071;53.082;18.218;2023-07-24T06:31:11;100354.05;;;19.01;70.28
75551;BME280;65071;53.082;18.218;2023-07-24T06:33:38;100350.41;;;19.04;71.31
75551;BME280;65071;53.082;18.218;2023-07-24T06:36:09;100354.77;;;19.08;71.35
75551;BME280;65071;53.082;18.218;2023-07-24T06:38:36;100359.27;;;19.16;72.12
75551;BME280;65071;53.082;18.218;2023-07-24T06:41:02;100353.27;;;19.23;71.89
75551;BME280;65071;53.082;18.218;2023-07-24T06:43:29;100348.98;;;19.27;72.38
75551;BME280;65071;53.082;18.218;2023-07-24T06:45:55;100335.38;;;19.31;72.05
75551;BME280;65071;53.082;18.218;2023-07-24T06:48:22;100313.84;;;19.38;71.34
75551;BME280;65071;53.082;18.218;2023-07-24T06:50:48;100307.78;;;19.56;70.75
75551;BME280;65071;53.082;18.218;2023-07-24T06:53:15;100305.39;;;19.77;71.20
75551;BME280;65071;53.082;18.218;2023-07-24T06:55:41;100301.70;;;19.94;71.09
75551;BME280;65071;53.082;18.218;2023-07-24T06:58:08;100297.25;;;20.06;71.25
75551;BME280;65071;53.082;18.218;2023-07-24T07:00:35;100295.61;;;20.18;70.79
75551;BME280;65071;53.082;18.218;2023-07-24T07:03:02;100293.71;;;20.29;70.56
75551;BME280;65071;53.082;18.218;2023-07-24T07:05:28;100286.23;;;20.41;71.16
75551;BME280;65071;53.082;18.218;2023-07-24T07:07:55;100288.23;;;20.54;70.61
75551;BME280;65071;53.082;18.218;2023-07-24T07:10:21;100289.43;;;20.73;70.47
75551;BME280;65071;53.082;18.218;2023-07-24T07:12:48;100288.11;;;20.88;70.17
75551;BME280;65071;53.082;18.218;2023-07-24T07:15:14;100286.17;;;21.04;70.17
75551;BME280;65071;53.082;18.218;2023-07-24T07:17:41;100281.95;;;21.17;69.14
75551;BME280;65071;53.082;18.218;2023-07-24T07:20:08;100282.96;;;21.31;68.88
75551;BME280;65071;53.082;18.218;2023-07-24T07:22:34;100276.31;;;21.40;68.42
75551;BME280;65071;53.082;18.218;2023-07-24T07:25:01;100270.37;;;21.42;67.99
75551;BME280;65071;53.082;18.218;2023-07-24T07:27:28;100263.14;;;21.43;67.59
75551;BME280;65071;53.082;18.218;2023-07-24T07:29:54;100262.45;;;21.44;67.07
75551;BME280;65071;53.082;18.218;2023-07-24T07:32:21;100268.86;;;21.47;67.66
75551;BME280;65071;53.082;18.218;2023-07-24T07:34:47;100268.84;;;21.57;67.91
75551;BME280;65071;53.082;18.218;2023-07-24T07:37:14;100259.30;;;21.71;67.42
75551;BME280;65071;53.082;18.218;2023-07-24T07:39:40;100259.51;;;21.85;66.78
75551;BME280;65071;53.082;18.218;2023-07-24T07:42:07;100260.65;;;21.99;66.92
75551;BME280;65071;53.082;18.218;2023-07-24T07:44:33;100257.14;;;22.06;67.78
75551;BME280;65071;53.082;18.218;2023-07-24T07:47:00;100254.64;;;22.07;66.99
75551;BME280;65071;53.082;18.218;2023-07-24T07:49:26;100249.09;;;22.07;67.01
75551;BME280;65071;53.082;18.218;2023-07-24T07:51:53;100253.44;;;22.14;66.80
75551;BME280;65071;53.082;18.218;2023-07-24T07:54:19;100249.61;;;22.33;67.30
75551;BME280;65071;53.082;18.218;2023-07-24T07:56:46;100248.59;;;22.54;66.45
75551;BME280;65071;53.082;18.218;2023-07-24T07:59:12;100241.45;;;22.76;65.92
75551;BME280;65071;53.082;18.218;2023-07-24T08:01:39;100234.80;;;22.99;65.44
75551;BME280;65071;53.082;18.218;2023-07-24T08:04:06;100230.63;;;23.22;64.28
75551;BME280;65071;53.082;18.218;2023-07-24T08:06:32;100221.66;;;23.42;63.46
75551;BME280;65071;53.082;18.218;2023-07-24T08:08:58;100222.40;;;23.59;62.32
75551;BME280;65071;53.082;18.218;2023-07-24T08:11:25;100225.11;;;23.77;61.68
75551;BME280;65071;53.082;18.218;2023-07-24T08:13:52;100218.89;;;24.01;60.90
75551;BME280;65071;53.082;18.218;2023-07-24T08:16:18;100216.39;;;24.27;60.20
75551;BME280;65071;53.082;18.218;2023-07-24T08:18:46;100209.80;;;24.41;59.26
75551;BME280;65071;53.082;18.218;2023-07-24T08:21:14;100205.48;;;24.54;59.22
75551;BME280;65071;53.082;18.218;2023-07-24T08:23:41;100199.19;;;24.68;58.73
75551;BME280;65071;53.082;18.218;2023-07-24T08:26:08;100201.91;;;24.84;58.48
75551;BME280;65071;53.082;18.218;2023-07-24T08:28:35;100198.06;;;24.97;56.85
75551;BME280;65071;53.082;18.218;2023-07-24T08:31:01;100194.33;;;25.10;56.53
75551;BME280;65071;53.082;18.218;2023-07-24T08:33:29;100191.77;;;25.21;55.44
75551;BME280;65071;53.082;18.218;2023-07-24T08:36:03;100191.58;;;25.29;54.46
75551;BME280;65071;53.082;18.218;2023-07-24T08:38:30;100192.14;;;25.38;54.32
75551;BME280;65071;53.082;18.218;2023-07-24T08:41:05;100191.17;;;25.62;53.62
75551;BME280;65071;53.082;18.218;2023-07-24T08:43:33;100188.97;;;25.90;52.12
75551;BME280;65071;53.082;18.218;2023-07-24T08:46:01;100183.48;;;26.02;50.72
75551;BME280;65071;53.082;18.218;2023-07-24T08:48:37;100188.13;;;26.17;51.24
75551;BME280;65071;53.082;18.218;2023-07-24T08:51:07;100179.36;;;26.37;50.39
75551;BME280;65071;53.082;18.218;2023-07-24T08:53:36;100181.07;;;26.64;49.86
75551;BME280;65071;53.082;18.218;2023-07-24T08:56:03;100172.96;;;26.86;48.99
75551;BME280;65071;53.082;18.218;2023-07-24T08:58:30;100170.84;;;27.13;48.13
75551;BME280;65071;53.082;18.218;2023-07-24T09:00:58;100167.39;;;27.35;46.89
75551;BME280;65071;53.082;18.218;2023-07-24T09:03:25;100165.19;;;27.53;46.15
75551;BME280;65071;53.082;18.218;2023-07-24T09:05:52;100162.06;;;27.72;46.67
75551;BME280;65071;53.082;18.218;2023-07-24T09:08:36;100161.02;;;27.90;45.66
75551;BME280;65071;53.082;18.218;2023-07-24T09:11:04;100160.11;;;28.10;45.80
75551;BME280;65071;53.082;18.218;2023-07-24T09:13:31;100158.13;;;28.22;44.78
75551;BME280;65071;53.082;18.218;2023-07-24T09:15:58;100151.46;;;28.34;45.77
75551;BME280;65071;53.082;18.218;2023-07-24T09:18:41;100147.30;;;28.47;45.46
75551;BME280;65071;53.082;18.218;2023-07-24T09:21:09;100146.82;;;28.57;43.52
75551;BME280;65071;53.082;18.218;2023-07-24T09:23:36;100143.23;;;28.67;43.21
75551;BME280;65071;53.082;18.218;2023-07-24T09:26:07;100137.85;;;28.75;42.35
75551;BME280;65071;53.082;18.218;2023-07-24T09:28:34;100136.04;;;28.80;41.28
75551;BME280;65071;53.082;18.218;2023-07-24T09:31:01;100132.53;;;28.90;42.15
75551;BME280;65071;53.082;18.218;2023-07-24T09:36:04;100140.88;;;29.11;41.39
75551;BME280;65071;53.082;18.218;2023-07-24T09:38:31;100132.33;;;29.28;40.19
75551;BME280;65071;53.082;18.218;2023-07-24T09:40:57;100127.43;;;29.41;40.44
75551;BME280;65071;53.082;18.218;2023-07-24T09:43:26;100123.70;;;29.47;39.71
75551;BME280;65071;53.082;18.218;2023-07-24T09:45:54;100117.30;;;29.59;39.73
75551;BME280;65071;53.082;18.218;2023-07-24T09:48:25;100115.20;;;29.69;39.64
75551;BME280;65071;53.082;18.218;2023-07-24T09:50:57;100116.27;;;29.74;39.23
75551;BME280;65071;53.082;18.218;2023-07-24T09:53:43;100121.90;;;29.90;39.46
75551;BME280;65071;53.082;18.218;2023-07-24T09:56:10;100115.52;;;30.06;38.51
75551;BME280;65071;53.082;18.218;2023-07-24T09:58:38;100114.84;;;30.04;37.67
75551;BME280;65071;53.082;18.218;2023-07-24T10:01:09;100106.63;;;30.07;37.95
75551;BME280;65071;53.082;18.218;2023-07-24T10:03:40;100112.97;;;30.02;37.28
75551;BME280;65071;53.082;18.218;2023-07-24T10:06:08;100107.70;;;30.04;37.56
75551;BME280;65071;53.082;18.218;2023-07-24T10:08:38;100102.94;;;30.08;37.87
75551;BME280;65071;53.082;18.218;2023-07-24T10:11:06;100097.77;;;30.07;37.48
75551;BME280;65071;53.082;18.218;2023-07-24T10:13:33;100090.99;;;30.10;37.18
75551;BME280;65071;53.082;18.218;2023-07-24T10:16:03;100085.48;;;30.06;36.66
75551;BME280;65071;53.082;18.218;2023-07-24T10:18:34;100079.95;;;30.08;37.12
75551;BME280;65071;53.082;18.218;2023-07-24T10:21:06;100084.24;;;30.06;36.99
75551;BME280;65071;53.082;18.218;2023-07-24T10:23:35;100079.48;;;30.14;37.54
75551;BME280;65071;53.082;18.218;2023-07-24T10:26:03;100080.70;;;30.26;37.18
75551;BME280;65071;53.082;18.218;2023-07-24T10:28:32;100070.66;;;30.39;36.89
75551;BME280;65071;53.082;18.218;2023-07-24T10:31:01;100060.56;;;30.51;36.98
75551;BME280;65071;53.082;18.218;2023-07-24T10:33:31;100049.75;;;30.55;36.41
75551;BME280;65071;53.082;18.218;2023-07-24T10:36:16;100048.95;;;30.60;36.30
75551;BME280;65071;53.082;18.218;2023-07-24T10:38:43;100047.17;;;30.67;36.25
75551;BME280;65071;53.082;18.218;2023-07-24T10:41:11;100041.64;;;30.75;36.15
75551;BME280;65071;53.082;18.218;2023-07-24T10:43:45;100038.82;;;30.77;35.53
75551;BME280;65071;53.082;18.218;2023-07-24T10:46:14;100039.09;;;30.85;35.60
75551;BME280;65071;53.082;18.218;2023-07-24T10:48:49;100033.31;;;30.92;34.89
75551;BME280;65071;53.082;18.218;2023-07-24T10:51:16;100034.64;;;31.05;35.18
75551;BME280;65071;53.082;18.218;2023-07-24T10:53:47;100037.23;;;31.16;34.60
75551;BME280;65071;53.082;18.218;2023-07-24T10:56:15;100037.04;;;31.24;34.36
75551;BME280;65071;53.082;18.218;2023-07-24T10:58:42;100032.48;;;31.26;34.56
75551;BME280;65071;53.082;18.218;2023-07-24T11:01:09;100034.59;;;31.39;34.22
75551;BME280;65071;53.082;18.218;2023-07-24T11:03:41;100033.26;;;31.46;33.63
75551;BME280;65071;53.082;18.218;2023-07-24T11:06:34;100029.38;;;31.59;33.77
75551;BME280;65071;53.082;18.218;2023-07-24T11:09:00;100024.88;;;31.67;34.03
75551;BME280;65071;53.082;18.218;2023-07-24T11:11:31;100023.23;;;31.71;33.57
75551;BME280;65071;53.082;18.218;2023-07-24T11:13:58;100022.84;;;31.56;32.91
75551;BME280;65071;53.082;18.218;2023-07-24T11:16:26;100013.25;;;31.50;33.00
75551;BME280;65071;53.082;18.218;2023-07-24T11:18:52;100012.65;;;31.47;33.16
75551;BME280;65071;53.082;18.218;2023-07-24T11:21:19;100008.18;;;31.44;32.71
75551;BME280;65071;53.082;18.218;2023-07-24T11:23:52;100011.90;;;31.45;33.05
75551;BME280;65071;53.082;18.218;2023-07-24T11:26:21;100009.48;;;31.47;32.90
75551;BME280;65071;53.082;18.218;2023-07-24T11:28:49;100008.08;;;31.41;32.80
75551;BME280;65071;53.082;18.218;2023-07-24T11:31:16;100009.57;;;31.41;32.67
75551;BME280;65071;53.082;18.218;2023-07-24T11:33:47;100004.27;;;31.47;32.72
75551;BME280;65071;53.082;18.218;2023-07-24T11:36:14;100010.77;;;31.57;33.23
75551;BME280;65071;53.082;18.218;2023-07-24T11:38:41;100010.75;;;31.65;33.14
75551;BME280;65071;53.082;18.218;2023-07-24T11:41:08;100013.26;;;31.72;32.59
75551;BME280;65071;53.082;18.218;2023-07-24T11:43:35;100007.90;;;31.80;32.88
75551;BME280;65071;53.082;18.218;2023-07-24T11:46:01;100006.73;;;31.83;32.82
75551;BME280;65071;53.082;18.218;2023-07-24T11:48:28;100008.73;;;31.80;32.82
75551;BME280;65071;53.082;18.218;2023-07-24T11:50:56;100005.91;;;31.79;32.68
75551;BME280;65071;53.082;18.218;2023-07-24T11:53:25;100005.80;;;31.71;32.14
75551;BME280;65071;53.082;18.218;2023-07-24T11:55:54;100001.89;;;31.62;32.30
75551;BME280;65071;53.082;18.218;2023-07-24T11:58:21;99993.15;;;31.73;32.31
75551;BME280;65071;53.082;18.218;2023-07-24T12:00:49;99984.12;;;31.83;32.30
75551;BME280;65071;53.082;18.218;2023-07-24T12:03:26;99987.89;;;31.82;31.50
75551;BME280;65071;53.082;18.218;2023-07-24T12:05:54;99984.59;;;31.89;31.92
75551;BME280;65071;53.082;18.218;2023-07-24T12:08:30;99978.08;;;32.03;31.64
75551;BME280;65071;53.082;18.218;2023-07-24T12:10:57;99972.95;;;32.17;31.13
75551;BME280;65071;53.082;18.218;2023-07-24T12:13:24;99970.29;;;32.21;31.29
75551;BME280;65071;53.082;18.218;2023-07-24T12:15:50;99977.65;;;32.17;31.05
75551;BME280;65071;53.082;18.218;2023-07-24T12:18:17;99975.64;;;32.12;31.20
75551;BME280;65071;53.082;18.218;2023-07-24T12:20:43;99974.80;;;31.96;31.20
75551;BME280;65071;53.082;18.218;2023-07-24T12:23:10;99970.30;;;31.88;31.23
75551;BME280;65071;53.082;18.218;2023-07-24T12:25:36;99968.67;;;31.75;31.04
75551;BME280;65071;53.082;18.218;2023-07-24T12:28:03;99963.91;;;31.63;31.21
75551;BME280;65071;53.082;18.218;2023-07-24T12:30:29;99958.08;;;31.62;31.42
75551;BME280;65071;53.082;18.218;2023-07-24T12:32:56;99957.61;;;31.71;31.27
75551;BME280;65071;53.082;18.218;2023-07-24T12:35:23;99953.58;;;31.84;31.25
75551;BME280;65071;53.082;18.218;2023-07-24T12:37:49;99954.61;;;32.04;31.05
75551;BME280;65071;53.082;18.218;2023-07-24T12:40:15;99944.34;;;32.20;31.16
75551;BME280;65071;53.082;18.218;2023-07-24T12:42:42;99939.17;;;32.26;31.04
75551;BME280;65071;53.082;18.218;2023-07-24T12:45:09;99932.55;;;32.23;30.61